Time;durP1;ratioP1;P1;durP2;ratioP2;P2;SDS_P1;SDS_P2;PMS_P1;PMS_P2;Temp;Humidity;BMP_temperature;BMP_pressure;BME280_temperature;BME280_humidity;BME280_pressure;Samples;Min_cycle;Max_cycle;Signal;HPM_P1;HPM_P2
2022/07/11 00:00:09;;;;;;;6.65;1.90;;;17.10;99.90;;;;;;4848633;29;20053;-78
2022/07/11 00:02:35;;;;;;;3.72;1.50;;;17.10;99.90;;;;;;4878983;29;20041;-78
2022/07/11 00:05:04;;;;;;;3.60;1.55;;;17.10;99.90;;;;;;4879154;29;20053;-78
2022/07/11 00:07:30;;;;;;;4.75;1.70;;;17.00;99.90;;;;;;4848993;29;20478;-78
2022/07/11 00:09:55;;;;;;;3.40;1.65;;;17.00;99.90;;;;;;4879443;29;20128;-78
2022/07/11 00:12:21;;;;;;;2.80;1.55;;;17.00;99.90;;;;;;4879225;29;20139;-78
2022/07/11 00:14:48;;;;;;;3.17;1.58;;;17.00;99.90;;;;;;4864057;29;20135;-78
2022/07/11 00:17:13;;;;;;;5.47;1.80;;;17.00;99.90;;;;;;4878922;29;20049;-78
2022/07/11 00:19:39;;;;;;;3.25;1.40;;;17.00;99.90;;;;;;4863340;29;20044;-78
2022/07/11 00:22:05;;;;;;;3.15;1.40;;;17.00;99.90;;;;;;4848208;29;20056;-78
2022/07/11 00:24:31;;;;;;;4.07;1.58;;;17.00;99.90;;;;;;4863594;29;20110;-78
2022/07/11 00:26:57;;;;;;;2.00;1.30;;;17.00;99.90;;;;;;4863509;29;20033;-78
2022/07/11 00:29:23;;;;;;;2.65;1.50;;;17.00;99.90;;;;;;4863458;29;20048;-78
2022/07/11 00:31:49;;;;;;;4.63;1.70;;;17.00;99.90;;;;;;4848644;29;20049;-78
2022/07/11 00:34:15;;;;;;;3.35;1.88;;;17.00;99.90;;;;;;4878697;29;20052;-78
2022/07/11 00:36:41;;;;;;;4.50;1.63;;;17.00;99.90;;;;;;4879846;29;20060;-78
2022/07/11 00:39:07;;;;;;;4.72;1.60;;;17.00;99.90;;;;;;4863771;29;20143;-78
2022/07/11 00:41:33;;;;;;;4.60;1.77;;;17.00;99.90;;;;;;4863089;29;20144;-78
2022/07/11 00:44:00;;;;;;;3.85;1.85;;;17.00;99.90;;;;;;4878699;29;20049;-78
2022/07/11 00:46:28;;;;;;;3.17;1.55;;;17.00;99.90;;;;;;4863499;29;20048;-78
2022/07/11 00:48:55;;;;;;;3.03;1.77;;;16.90;99.90;;;;;;4863743;29;20048;-78
2022/07/11 00:51:22;;;;;;;4.22;1.80;;;16.90;99.90;;;;;;4879704;29;20085;-78
2022/07/11 00:53:53;;;;;;;3.95;1.77;;;16.90;99.90;;;;;;4848741;29;20486;-78
2022/07/11 00:56:21;;;;;;;2.83;1.60;;;16.80;99.90;;;;;;4879673;29;20501;-78
2022/07/11 00:58:50;;;;;;;4.35;1.73;;;16.80;99.90;;;;;;4833061;29;20097;-79
2022/07/11 01:01:17;;;;;;;2.20;1.40;;;16.70;99.90;;;;;;4863497;29;20033;-78
2022/07/11 01:03:43;;;;;;;4.13;1.60;;;16.70;99.90;;;;;;4878984;29;20132;-78
2022/07/11 01:06:10;;;;;;;5.43;1.98;;;16.70;99.90;;;;;;4879008;29;20044;-78
2022/07/11 01:08:38;;;;;;;3.28;1.60;;;16.70;99.90;;;;;;4848627;29;20064;-78
2022/07/11 01:11:18;;;;;;;2.42;1.70;;;16.70;99.90;;;;;;4864202;29;20454;-78
2022/07/11 01:13:45;;;;;;;3.28;1.77;;;16.60;99.90;;;;;;4864253;29;20045;-78
2022/07/11 01:16:14;;;;;;;4.78;1.80;;;16.60;99.90;;;;;;4879913;29;20044;-78
2022/07/11 01:18:44;;;;;;;3.95;1.95;;;16.60;99.90;;;;;;4863781;29;20049;-78
2022/07/11 01:21:23;;;;;;;2.72;1.80;;;16.50;99.90;;;;;;4863809;29;20445;-78
2022/07/11 01:23:50;;;;;;;3.58;1.63;;;16.50;99.90;;;;;;4878773;29;20497;-78
2022/07/11 01:26:17;;;;;;;3.17;1.65;;;16.50;99.90;;;;;;4847433;29;20490;-78
2022/07/11 01:28:44;;;;;;;3.03;1.80;;;16.50;99.90;;;;;;4864057;29;20045;-78
2022/07/11 01:31:12;;;;;;;3.42;1.70;;;16.50;99.90;;;;;;4833475;29;20080;-78
2022/07/11 01:33:38;;;;;;;4.93;2.00;;;16.50;99.90;;;;;;4863430;29;20083;-78
2022/07/11 01:36:04;;;;;;;3.97;1.95;;;16.50;99.90;;;;;;4879315;29;20057;-78
2022/07/11 01:38:30;;;;;;;2.67;1.63;;;16.50;99.90;;;;;;4848172;29;20049;-78
2022/07/11 01:40:55;;;;;;;2.60;1.77;;;16.60;99.90;;;;;;4848650;29;20041;-78
2022/07/11 01:43:21;;;;;;;2.92;1.63;;;16.50;99.90;;;;;;4867643;29;20152;-78
2022/07/11 01:45:54;;;;;;;2.83;1.63;;;16.50;99.90;;;;;;4883168;29;20056;-78
2022/07/11 01:48:20;;;;;;;2.60;1.45;;;16.60;99.90;;;;;;4882953;29;20037;-78
2022/07/11 01:50:47;;;;;;;3.83;1.85;;;16.50;99.90;;;;;;4851327;29;20085;-79
2022/07/11 01:53:13;;;;;;;2.53;1.85;;;16.50;99.90;;;;;;4867473;29;20401;-79
2022/07/11 01:55:39;;;;;;;2.60;1.77;;;16.50;99.90;;;;;;4867062;29;20124;-78
2022/07/11 01:58:05;;;;;;;5.07;1.75;;;16.50;99.90;;;;;;4866585;29;20422;-78
2022/07/11 02:00:30;;;;;;;3.90;1.80;;;16.60;99.90;;;;;;4882162;29;20482;-78
2022/07/11 02:02:56;;;;;;;3.30;2.03;;;16.60;99.90;;;;;;4867049;29;20083;-78
2022/07/11 02:05:22;;;;;;;3.03;1.60;;;16.50;99.90;;;;;;4851867;29;20079;-78
2022/07/11 02:10:32;;;;;;;4.25;1.92;;;16.50;99.90;;;;;;4868243;29;20414;-78
2022/07/11 02:12:59;;;;;;;3.75;2.47;;;16.50;99.90;;;;;;4850840;29;20041;-78
2022/07/11 02:15:25;;;;;;;5.97;2.90;;;16.50;99.90;;;;;;4866179;29;20089;-78
2022/07/11 02:17:51;;;;;;;3.53;2.40;;;16.60;99.90;;;;;;4866489;29;20084;-78
2022/07/11 02:20:21;;;;;;;3.67;2.08;;;16.50;99.90;;;;;;4882403;29;20045;-78
2022/07/11 02:22:48;;;;;;;3.63;2.25;;;16.50;99.90;;;;;;4836921;29;20077;-78
2022/07/11 02:25:14;;;;;;;3.58;2.30;;;16.50;99.90;;;;;;4852366;29;20538;-78
2022/07/11 02:27:40;;;;;;;4.70;2.17;;;16.50;99.90;;;;;;4867237;29;20128;-78
2022/07/11 02:30:06;;;;;;;4.38;2.45;;;16.50;99.90;;;;;;4880877;29;20123;-79
2022/07/11 02:32:32;;;;;;;4.75;2.50;;;16.40;99.90;;;;;;4849765;29;20060;-78
2022/07/11 02:34:58;;;;;;;5.43;2.42;;;16.50;99.90;;;;;;4864904;29;20049;-78
2022/07/11 02:37:23;;;;;;;3.85;2.45;;;16.50;99.90;;;;;;4865729;29;20154;-78
2022/07/11 02:39:49;;;;;;;6.05;2.75;;;16.50;99.90;;;;;;4866541;29;20048;-78
2022/07/11 02:42:15;;;;;;;6.10;2.72;;;16.40;99.90;;;;;;4834373;29;20064;-78
2022/07/11 02:44:40;;;;;;;3.30;2.22;;;16.50;99.90;;;;;;4834549;29;20519;-78
2022/07/11 02:47:06;;;;;;;4.18;2.47;;;16.40;99.90;;;;;;4881920;29;20047;-78
2022/07/11 02:49:32;;;;;;;4.65;2.30;;;16.40;99.90;;;;;;4882014;29;20095;-78
2022/07/11 02:51:58;;;;;;;4.85;2.50;;;16.40;99.90;;;;;;4881530;29;20055;-78
2022/07/11 02:54:24;;;;;;;4.20;2.75;;;16.40;99.90;;;;;;4865586;29;20051;-78
2022/07/11 02:56:50;;;;;;;5.05;2.70;;;16.40;99.90;;;;;;4865715;29;20546;-78
2022/07/11 02:59:16;;;;;;;6.18;2.75;;;16.40;99.90;;;;;;4866579;29;20135;-78
2022/07/11 03:01:42;;;;;;;4.78;2.78;;;16.30;99.90;;;;;;4849646;29;20051;-78
2022/07/11 03:04:08;;;;;;;5.25;2.50;;;16.30;99.90;;;;;;4849796;29;20116;-78
2022/07/11 03:06:34;;;;;;;4.88;2.63;;;16.30;99.90;;;;;;4850292;29;20525;-78
2022/07/11 03:09:00;;;;;;;4.80;2.58;;;16.30;99.90;;;;;;4850123;29;20128;-78
2022/07/11 03:11:26;;;;;;;7.03;2.97;;;16.30;99.90;;;;;;4850635;29;20406;-78
2022/07/11 03:13:51;;;;;;;10.38;2.95;;;16.30;99.90;;;;;;4849852;29;20084;-78
2022/07/11 03:16:17;;;;;;;5.43;3.20;;;16.30;99.90;;;;;;4849837;29;20049;-78
2022/07/11 03:18:43;;;;;;;7.50;3.00;;;16.20;99.90;;;;;;4850261;29;20413;-78
2022/07/11 03:21:08;;;;;;;4.20;3.05;;;16.20;99.90;;;;;;4849609;29;20053;-78
2022/07/11 03:23:34;;;;;;;4.47;2.90;;;16.20;99.90;;;;;;4850389;29;20041;-78
2022/07/11 03:26:00;;;;;;;3.83;2.50;;;16.20;99.90;;;;;;4849796;29;20041;-78
2022/07/11 03:28:26;;;;;;;4.50;2.90;;;16.20;99.90;;;;;;4850173;29;20036;-78
2022/07/11 03:30:52;;;;;;;5.43;3.03;;;16.20;99.90;;;;;;4834831;29;20052;-78
2022/07/11 03:33:17;;;;;;;4.53;2.80;;;16.20;99.90;;;;;;4864964;29;20041;-78
2022/07/11 03:35:43;;;;;;;6.32;2.83;;;16.20;99.90;;;;;;4864838;29;20482;-78
2022/07/11 03:38:10;;;;;;;3.40;2.55;;;16.20;99.90;;;;;;4849712;29;20041;-78
2022/07/11 03:40:36;;;;;;;3.72;2.65;;;16.20;99.90;;;;;;4849442;29;20037;-78
2022/07/11 03:43:02;;;;;;;5.38;2.65;;;16.20;99.90;;;;;;4849457;29;20120;-78
2022/07/11 03:45:28;;;;;;;6.43;2.85;;;16.20;99.90;;;;;;4864179;29;20044;-78
2022/07/11 03:47:54;;;;;;;5.88;2.85;;;16.20;99.90;;;;;;4879550;29;20041;-79
2022/07/11 03:50:20;;;;;;;5.80;3.10;;;16.20;99.90;;;;;;4879886;29;20044;-78
2022/07/11 03:52:46;;;;;;;6.07;2.97;;;16.20;99.90;;;;;;4865008;29;20132;-78
2022/07/11 03:55:12;;;;;;;4.45;2.95;;;16.10;99.90;;;;;;4864438;29;20135;-78
2022/07/11 03:57:38;;;;;;;7.80;3.30;;;16.20;99.90;;;;;;4864849;29;20041;-78
2022/07/11 04:00:06;;;;;;;5.40;2.78;;;16.20;99.90;;;;;;4864954;29;20049;-78
2022/07/11 04:02:35;;;;;;;4.90;3.35;;;16.20;99.90;;;;;;4879672;29;20044;-78
2022/07/11 04:05:01;;;;;;;6.97;3.83;;;16.20;99.90;;;;;;4848815;29;20071;-78
2022/07/11 04:07:30;;;;;;;4.88;3.03;;;16.20;99.90;;;;;;4880596;29;20507;-78
2022/07/11 04:09:56;;;;;;;6.75;3.45;;;16.20;99.90;;;;;;4849952;29;20051;-78
2022/07/11 04:12:21;;;;;;;7.22;3.17;;;16.20;99.90;;;;;;4864006;29;20049;-78
2022/07/11 04:14:47;;;;;;;7.03;3.13;;;16.20;99.90;;;;;;4848826;29;20083;-78
2022/07/11 04:17:13;;;;;;;6.97;3.50;;;16.20;99.90;;;;;;4833839;29;20412;-78
2022/07/11 04:19:39;;;;;;;5.30;3.30;;;16.20;99.90;;;;;;4879599;29;20101;-78
2022/07/11 04:22:05;;;;;;;6.57;3.33;;;16.20;99.90;;;;;;4848486;29;20049;-78
2022/07/11 04:24:31;;;;;;;5.22;2.90;;;16.20;99.90;;;;;;4863779;29;20052;-78
2022/07/11 04:26:57;;;;;;;4.07;3.22;;;16.30;99.90;;;;;;4864347;29;20049;-78
2022/07/11 04:29:23;;;;;;;4.60;3.28;;;16.20;99.90;;;;;;4863515;29;20131;-78
2022/07/11 04:31:52;;;;;;;5.22;3.30;;;16.20;99.90;;;;;;4863670;29;20113;-78
2022/07/11 04:34:18;;;;;;;4.15;2.90;;;16.20;99.90;;;;;;4863745;29;20056;-78
2022/07/11 04:36:44;;;;;;;5.55;2.92;;;16.20;99.90;;;;;;4832630;29;20620;-78
2022/07/11 04:39:10;;;;;;;3.25;2.58;;;16.20;99.90;;;;;;4863964;29;20049;-79
2022/07/11 04:41:36;;;;;;;5.80;2.70;;;16.20;99.90;;;;;;4878606;29;20517;-78
2022/07/11 04:44:03;;;;;;;3.70;2.42;;;16.20;99.90;;;;;;4863687;29;20078;-78
2022/07/11 04:46:29;;;;;;;5.20;2.60;;;16.20;99.90;;;;;;4848294;29;20055;-78
2022/07/11 04:48:55;;;;;;;5.85;2.67;;;16.20;99.90;;;;;;4879512;29;20037;-78
2022/07/11 04:51:21;;;;;;;4.53;2.33;;;16.20;99.90;;;;;;4878899;29;20131;-78
2022/07/11 04:53:47;;;;;;;3.30;2.10;;;16.10;99.90;;;;;;4878639;29;20100;-78
2022/07/11 04:56:13;;;;;;;3.22;2.05;;;16.20;99.90;;;;;;4879882;29;20115;-78
2022/07/11 04:58:40;;;;;;;4.25;2.25;;;16.20;99.90;;;;;;4849139;29;20478;-78
2022/07/11 05:01:06;;;;;;;2.38;1.70;;;16.20;99.90;;;;;;4848472;29;20168;-78
2022/07/11 05:03:34;;;;;;;2.53;1.70;;;16.10;99.90;;;;;;4878823;29;20053;-78
2022/07/11 05:06:00;;;;;;;3.25;1.83;;;16.10;99.90;;;;;;4878979;29;20102;-78
2022/07/11 05:08:26;;;;;;;4.75;2.00;;;16.10;99.90;;;;;;4848340;29;20045;-78
2022/07/11 05:10:52;;;;;;;3.08;1.70;;;16.20;99.90;;;;;;4863941;29;20104;-78
2022/07/11 05:13:18;;;;;;;4.75;2.10;;;16.20;99.90;;;;;;4848456;29;20622;-78
2022/07/11 05:15:44;;;;;;;3.05;2.00;;;16.30;99.90;;;;;;4847782;29;20510;-78
2022/07/11 05:18:10;;;;;;;2.83;2.08;;;16.30;99.90;;;;;;4863209;29;20124;-79
2022/07/11 05:20:36;;;;;;;2.47;1.88;;;16.30;99.90;;;;;;4847757;29;20041;-78
2022/07/11 05:23:02;;;;;;;2.63;1.80;;;16.40;99.90;;;;;;4848054;29;20037;-78
2022/07/11 05:25:28;;;;;;;1.83;1.55;;;16.40;99.90;;;;;;4878903;29;20455;-78
2022/07/11 05:27:53;;;;;;;2.83;1.70;;;16.40;99.90;;;;;;4878669;29;20409;-78
2022/07/11 05:30:19;;;;;;;4.95;1.65;;;16.50;99.90;;;;;;4864114;29;20041;-78
2022/07/11 05:32:45;;;;;;;3.28;1.67;;;16.50;99.90;;;;;;4863398;29;20041;-78
2022/07/11 05:35:10;;;;;;;2.13;1.55;;;16.60;99.90;;;;;;4832098;29;20041;-79
2022/07/11 05:37:36;;;;;;;3.05;1.60;;;16.60;99.90;;;;;;4847870;29;20047;-78
2022/07/11 05:40:02;;;;;;;2.72;1.65;;;16.60;99.90;;;;;;4878950;29;20542;-78
2022/07/11 05:42:28;;;;;;;2.80;1.50;;;16.60;99.90;;;;;;4863322;29;20089;-78
2022/07/11 05:44:54;;;;;;;2.33;1.50;;;16.60;99.90;;;;;;4848515;29;20140;-78
2022/07/11 05:47:20;;;;;;;1.90;1.40;;;16.70;99.90;;;;;;4879228;29;20406;-79
2022/07/11 05:49:46;;;;;;;2.72;1.60;;;16.80;99.90;;;;;;4864192;29;20033;-78
2022/07/11 05:52:11;;;;;;;2.55;1.38;;;16.90;99.90;;;;;;4849065;29;20049;-78
2022/07/11 05:54:37;;;;;;;2.58;1.48;;;16.90;99.90;;;;;;4864075;29;20058;-78
2022/07/11 05:57:03;;;;;;;2.45;1.30;;;16.90;99.90;;;;;;4879537;29;20049;-78
2022/07/11 05:59:29;;;;;;;2.05;1.13;;;17.00;99.90;;;;;;4879061;29;20048;-78
2022/07/11 06:01:55;;;;;;;2.53;1.20;;;16.90;99.90;;;;;;4863830;29;20051;-79
2022/07/11 06:04:21;;;;;;;1.73;1.30;;;16.90;99.90;;;;;;4863745;29;20079;-79
2022/07/11 06:06:47;;;;;;;1.02;0.80;;;16.90;99.90;;;;;;4848387;29;20045;-78
2022/07/11 06:09:13;;;;;;;2.03;1.10;;;16.90;99.90;;;;;;4863661;29;20172;-78
2022/07/11 06:11:39;;;;;;;4.25;1.00;;;16.90;99.90;;;;;;4863747;29;20091;-78
2022/07/11 06:14:08;;;;;;;2.47;1.20;;;16.90;99.90;;;;;;4864377;29;20037;-78
2022/07/11 06:16:35;;;;;;;1.45;1.20;;;17.00;99.90;;;;;;4863901;29;20052;-78
2022/07/11 06:19:01;;;;;;;1.13;1.00;;;17.00;99.90;;;;;;4878866;29;20581;-78
2022/07/11 06:21:27;;;;;;;1.60;1.00;;;17.00;99.90;;;;;;4848530;29;20080;-78
2022/07/11 06:23:54;;;;;;;1.88;0.88;;;17.00;99.90;;;;;;4863726;29;20044;-78
2022/07/11 06:26:20;;;;;;;1.35;1.00;;;17.00;99.90;;;;;;4864161;29;20045;-78
2022/07/11 06:28:46;;;;;;;1.08;0.80;;;17.10;99.90;;;;;;4881193;29;20072;-79
2022/07/11 06:31:12;;;;;;;2.13;0.90;;;17.10;99.90;;;;;;4880797;29;20045;-78
2022/07/11 06:33:38;;;;;;;1.75;1.00;;;17.20;99.90;;;;;;4881702;29;20048;-78
2022/07/11 06:36:05;;;;;;;2.05;0.90;;;17.20;99.90;;;;;;4867484;29;20097;-78
2022/07/11 06:38:31;;;;;;;1.42;0.90;;;17.30;99.90;;;;;;4867956;29;20045;-78
2022/07/11 06:40:57;;;;;;;0.82;0.80;;;17.30;99.90;;;;;;4851865;29;20041;-78
2022/07/11 06:43:24;;;;;;;1.02;0.70;;;17.40;99.90;;;;;;4867002;29;20057;-79
2022/07/11 06:45:50;;;;;;;1.88;0.82;;;17.40;99.90;;;;;;4851682;29;20097;-79
2022/07/11 06:48:17;;;;;;;1.73;0.73;;;17.50;99.90;;;;;;4866492;29;20454;-79
2022/07/11 06:50:43;;;;;;;0.52;0.52;;;17.40;99.90;;;;;;4866006;29;20045;-78
2022/07/11 06:53:09;;;;;;;2.20;0.68;;;17.40;99.90;;;;;;4866292;29;20048;-78
2022/07/11 06:55:35;;;;;;;0.82;0.60;;;17.40;99.90;;;;;;4882826;29;20117;-78
2022/07/11 06:58:01;;;;;;;1.35;0.63;;;17.50;99.90;;;;;;4867061;29;20106;-78
2022/07/11 07:00:30;;;;;;;2.05;0.80;;;17.50;99.90;;;;;;4851577;29;20041;-79
2022/07/11 07:02:56;;;;;;;1.48;1.00;;;17.50;99.90;;;;;;4867007;29;20055;-78
2022/07/11 07:05:26;;;;;;;1.23;0.60;;;17.50;99.90;;;;;;4851321;29;20041;-78
2022/07/11 07:07:52;;;;;;;3.63;0.70;;;17.40;99.90;;;;;;4866219;29;20045;-79
2022/07/11 07:10:18;;;;;;;1.13;0.80;;;17.40;99.90;;;;;;4865616;29;20045;-78
2022/07/11 07:12:45;;;;;;;1.83;0.80;;;17.40;99.90;;;;;;4850626;29;20071;-78
2022/07/11 07:15:13;;;;;;;1.30;0.57;;;17.30;99.90;;;;;;4866123;29;20477;-79
2022/07/11 07:17:39;;;;;;;1.08;0.60;;;17.40;99.90;;;;;;4881680;29;20109;-79
2022/07/11 07:20:08;;;;;;;1.25;0.55;;;17.50;99.90;;;;;;4881672;29;20048;-79
2022/07/11 07:22:34;;;;;;;0.93;0.60;;;17.50;99.90;;;;;;4866295;29;20052;-78
2022/07/11 07:25:00;;;;;;;0.70;0.45;;;17.60;99.90;;;;;;4851426;29;20462;-79
2022/07/11 07:27:26;;;;;;;0.98;0.70;;;17.70;99.90;;;;;;4865942;29;20438;-78
2022/07/11 07:29:53;;;;;;;1.25;0.70;;;17.70;99.90;;;;;;4865980;29;20128;-78
2022/07/11 07:32:19;;;;;;;0.93;0.55;;;17.80;99.90;;;;;;4850808;29;20049;-79
2022/07/11 07:34:44;;;;;;;1.75;0.80;;;17.70;99.90;;;;;;4866028;29;20065;-78
2022/07/11 07:37:10;;;;;;;2.10;0.80;;;17.70;99.90;;;;;;4849952;29;20044;-78
2022/07/11 07:39:36;;;;;;;1.05;0.68;;;17.80;99.90;;;;;;4834438;29;20089;-78
2022/07/11 07:42:02;;;;;;;1.17;0.70;;;17.70;99.90;;;;;;4880665;29;20391;-79
2022/07/11 07:44:27;;;;;;;1.98;0.60;;;17.80;99.90;;;;;;4864796;29;20059;-78
2022/07/11 07:46:53;;;;;;;1.27;0.57;;;17.80;99.90;;;;;;4865539;29;20056;-78
2022/07/11 07:49:19;;;;;;;1.27;0.80;;;17.80;99.90;;;;;;4834445;29;20478;-78
2022/07/11 07:51:44;;;;;;;0.93;0.63;;;17.80;99.90;;;;;;4880151;29;20053;-79
2022/07/11 07:54:10;;;;;;;0.95;0.60;;;17.80;99.90;;;;;;4849392;29;20132;-78
2022/07/11 07:56:36;;;;;;;1.35;0.55;;;17.80;99.90;;;;;;4848433;29;20045;-78
2022/07/11 07:59:01;;;;;;;1.08;0.60;;;17.90;99.90;;;;;;4848218;29;20044;-79
2022/07/11 08:01:36;;;;;;;1.52;0.60;;;17.90;99.90;;;;;;4863604;29;20049;-78
2022/07/11 08:04:06;;;;;;;0.85;0.40;;;18.00;99.90;;;;;;4850041;29;20127;-78
2022/07/11 08:06:34;;;;;;;0.98;0.50;;;18.10;99.90;;;;;;4880079;29;20083;-79
2022/07/11 08:09:00;;;;;;;0.80;0.60;;;18.10;99.90;;;;;;4879359;29;20620;-78
2022/07/11 08:11:26;;;;;;;1.85;0.55;;;18.10;99.90;;;;;;4864152;29;20108;-79
2022/07/11 08:13:53;;;;;;;0.82;0.50;;;18.20;99.90;;;;;;4881108;29;20116;-79
2022/07/11 08:16:19;;;;;;;1.08;0.50;;;18.30;99.90;;;;;;4881124;29;20049;-78
2022/07/11 08:18:45;;;;;;;0.50;0.30;;;18.40;99.90;;;;;;4849932;29;20557;-78
2022/07/11 08:21:11;;;;;;;1.08;0.30;;;18.50;99.90;;;;;;4864571;29;20053;-79
2022/07/11 08:23:37;;;;;;;0.88;0.40;;;18.60;99.90;;;;;;4833533;29;20096;-78
2022/07/11 08:26:03;;;;;;;0.40;0.30;;;18.70;99.90;;;;;;4880843;29;20386;-78
2022/07/11 08:28:29;;;;;;;0.85;0.43;;;18.70;99.90;;;;;;4865960;29;20056;-78
2022/07/11 08:30:55;;;;;;;1.10;0.50;;;18.70;99.90;;;;;;4850125;29;20045;-79
2022/07/11 08:33:20;;;;;;;0.73;0.40;;;18.70;99.90;;;;;;4864871;29;20063;-78
2022/07/11 08:35:46;;;;;;;2.03;0.40;;;18.70;99.90;;;;;;4848776;29;20104;-78
2022/07/11 08:38:12;;;;;;;1.60;0.55;;;18.60;99.90;;;;;;4863848;29;20093;-78
2022/07/11 08:40:41;;;;;;;1.02;0.60;;;18.50;99.90;;;;;;4864224;29;20079;-78
2022/07/11 08:43:18;;;;;;;1.42;0.68;;;18.50;99.90;;;;;;4836163;29;20418;-78
2022/07/11 08:45:44;;;;;;;0.40;0.40;;;18.50;99.90;;;;;;4880063;29;20037;-78
2022/07/11 08:48:10;;;;;;;2.13;0.50;;;18.50;99.90;;;;;;4880320;29;20517;-78
2022/07/11 08:50:37;;;;;;;0.73;0.40;;;18.50;99.90;;;;;;4880515;29;20041;-79
2022/07/11 08:53:04;;;;;;;1.48;0.50;;;18.50;99.90;;;;;;4880070;29;20052;-78
2022/07/11 08:55:30;;;;;;;1.30;0.60;;;18.60;99.90;;;;;;4879978;29;20045;-78
2022/07/11 08:57:56;;;;;;;1.40;0.57;;;18.60;99.90;;;;;;4864047;29;20107;-79
2022/07/11 09:00:22;;;;;;;1.17;0.40;;;18.70;99.90;;;;;;4847989;29;20131;-78
2022/07/11 09:02:49;;;;;;;1.25;0.40;;;18.60;99.90;;;;;;4878781;29;20116;-79
2022/07/11 09:05:15;;;;;;;1.50;0.60;;;18.60;99.90;;;;;;4848636;29;20051;-79
2022/07/11 09:07:46;;;;;;;1.55;0.60;;;18.70;99.90;;;;;;4864470;29;20049;-79
2022/07/11 09:10:12;;;;;;;3.10;0.80;;;18.80;99.90;;;;;;4864211;29;20076;-78
2022/07/11 09:12:57;;;;;;;0.98;0.50;;;18.80;99.90;;;;;;4879792;29;20041;-79
2022/07/11 09:15:40;;;;;;;0.50;0.50;;;18.90;99.90;;;;;;4864119;29;20045;-78
2022/07/11 09:18:32;;;;;;;2.38;0.68;;;19.10;99.90;;;;;;4864647;29;20048;-79
2022/07/11 09:26:31;;;;;;;1.10;0.50;;;19.60;99.90;;;;;;4879619;29;20113;-79
2022/07/11 09:29:04;;;;;;;1.35;0.50;;;19.60;99.90;;;;;;4879774;29;20127;-78
2022/07/11 09:31:31;;;;;;;2.10;0.47;;;19.60;99.90;;;;;;4863670;29;20454;-79
2022/07/11 09:34:01;;;;;;;0.45;0.30;;;19.50;99.90;;;;;;4848444;29;20467;-78
2022/07/11 09:36:41;;;;;;;3.33;0.63;;;19.50;99.90;;;;;;4879555;29;20049;-79
2022/07/11 09:39:13;;;;;;;1.67;0.45;;;19.40;99.90;;;;;;4864578;29;20132;-79
2022/07/11 09:41:39;;;;;;;0.98;0.38;;;19.30;99.90;;;;;;4862975;29;20045;-79
2022/07/11 09:44:14;;;;;;;0.95;0.40;;;19.20;99.90;;;;;;4879454;29;20474;-78
2022/07/11 09:46:41;;;;;;;1.00;0.45;;;19.20;99.90;;;;;;4863257;29;20398;-79
2022/07/11 09:49:07;;;;;;;1.20;0.70;;;19.20;99.90;;;;;;4832699;29;20041;-78
2022/07/11 09:51:34;;;;;;;0.65;0.47;;;19.20;99.90;;;;;;4863904;29;20089;-78
2022/07/11 09:54:01;;;;;;;0.38;0.35;;;19.30;99.90;;;;;;4863650;29;20048;-78
2022/07/11 09:56:43;;;;;;;1.35;0.60;;;19.40;99.90;;;;;;4863672;29;20048;-78
2022/07/11 09:59:15;;;;;;;0.75;0.50;;;19.40;99.90;;;;;;4863605;29;20111;-78
2022/07/11 10:01:40;;;;;;;0.85;0.50;;;19.40;99.90;;;;;;4863979;29;20072;-78
2022/07/11 10:04:12;;;;;;;0.40;0.35;;;19.40;99.90;;;;;;4868005;29;20055;-79
2022/07/11 10:06:38;;;;;;;1.27;0.55;;;19.30;99.90;;;;;;4852210;29;20044;-78
2022/07/11 10:09:05;;;;;;;1.27;0.47;;;19.40;99.90;;;;;;4867715;29;20128;-78
2022/07/11 10:11:35;;;;;;;0.57;0.50;;;19.40;99.90;;;;;;4867356;29;20048;-79
2022/07/11 10:14:03;;;;;;;0.88;0.40;;;19.40;99.90;;;;;;4866634;29;20049;-78
2022/07/11 10:17:07;;;;;;;0.70;0.50;;;19.40;99.90;;;;;;4865536;29;20127;-79
2022/07/11 10:19:50;;;;;;;0.50;0.50;;;19.50;99.90;;;;;;4867029;29;20084;-79
2022/07/11 10:22:25;;;;;;;1.00;0.50;;;19.60;99.90;;;;;;4882686;29;20053;-79
2022/07/11 10:24:55;;;;;;;0.40;0.40;;;19.60;99.90;;;;;;4867108;29;20049;-79
2022/07/11 10:27:21;;;;;;;0.85;0.40;;;19.70;99.90;;;;;;4866213;29;20483;-79
2022/07/11 10:29:53;;;;;;;4.10;0.55;;;19.70;99.90;;;;;;4866828;29;20061;-79
2022/07/11 10:32:19;;;;;;;0.55;0.40;;;19.80;99.90;;;;;;4866884;29;20541;-78
2022/07/11 10:34:47;;;;;;;0.40;0.30;;;19.90;99.90;;;;;;4836340;29;20049;-78
2022/07/11 10:37:13;;;;;;;1.25;0.50;;;19.90;99.90;;;;;;4882564;29;20055;-78
2022/07/11 10:39:56;;;;;;;0.50;0.40;;;19.90;99.90;;;;;;4867287;29;20060;-78
2022/07/11 10:42:22;;;;;;;0.65;0.40;;;19.90;99.90;;;;;;4880360;29;20121;-79
2022/07/11 10:44:55;;;;;;;1.10;0.57;;;20.00;99.90;;;;;;4851220;29;20045;-79
2022/07/11 10:47:41;;;;;;;4.03;0.57;;;20.00;99.90;;;;;;4882319;29;20095;-79
2022/07/11 10:50:37;;;;;;;0.55;0.30;;;20.00;99.90;;;;;;4852499;29;20040;-79
2022/07/11 10:53:08;;;;;;;0.75;0.40;;;20.00;99.90;;;;;;4881745;29;20049;-79
2022/07/11 10:56:24;;;;;;;0.77;0.40;;;20.10;99.90;;;;;;4866485;29;20073;-79
2022/07/11 10:59:03;;;;;;;0.55;0.30;;;20.10;99.90;;;;;;4862866;29;20071;-78
2022/07/11 11:01:30;;;;;;;1.02;0.60;;;20.10;99.90;;;;;;4881646;29;20101;-78
2022/07/11 11:04:34;;;;;;;0.80;0.40;;;20.00;99.90;;;;;;4866619;29;20087;-79
2022/07/11 11:06:59;;;;;;;1.08;0.50;;;20.10;99.90;;;;;;4866874;29;20493;-79
2022/07/11 11:09:38;;;;;;;0.35;0.35;;;20.00;99.90;;;;;;4851443;29;20041;-79
2022/07/11 11:12:05;;;;;;;0.55;0.55;;;20.10;99.90;;;;;;4866252;29;20069;-78
2022/07/11 11:14:30;;;;;;;1.45;0.40;;;20.00;99.90;;;;;;4865589;29;20045;-78
2022/07/11 11:17:35;;;;;;;0.57;0.50;;;20.10;99.90;;;;;;4851166;29;20049;-79
2022/07/11 11:20:02;;;;;;;0.77;0.40;;;20.10;99.90;;;;;;4881861;29;20048;-79
2022/07/11 11:22:28;;;;;;;0.57;0.50;;;20.20;99.90;;;;;;4865896;29;20079;-79
2022/07/11 11:24:56;;;;;;;2.15;0.55;;;20.20;99.90;;;;;;4850087;29;20486;-78
2022/07/11 11:27:24;;;;;;;1.08;0.57;;;20.20;99.90;;;;;;4849915;29;20258;-79
2022/07/11 11:29:51;;;;;;;0.68;0.50;;;20.20;99.90;;;;;;4865458;29;20064;-79
2022/07/11 11:32:18;;;;;;;1.60;0.40;;;20.20;99.90;;;;;;4850006;29;20047;-78
2022/07/11 11:34:44;;;;;;;3.28;0.57;;;20.20;99.90;;;;;;4865915;29;20576;-87
2022/07/11 11:37:10;;;;;;;1.55;0.50;;;20.20;99.90;;;;;;4851085;29;20398;-87
2022/07/11 11:39:39;;;;;;;1.13;0.50;;;20.30;99.90;;;;;;4865646;29;20045;-86
2022/07/11 11:42:16;;;;;;;1.60;0.45;;;20.30;99.90;;;;;;4866338;29;20057;-86
2022/07/11 11:44:58;;;;;;;0.93;0.50;;;20.40;99.90;;;;;;4866152;29;20482;-86
2022/07/11 11:47:25;;;;;;;0.70;0.50;;;20.40;99.90;;;;;;4867027;29;20048;-87
2022/07/11 11:49:52;;;;;;;0.50;0.40;;;20.40;99.90;;;;;;4866681;29;20509;-87
2022/07/11 11:52:20;;;;;;;1.90;0.50;;;20.50;99.90;;;;;;4866009;29;20410;-87
2022/07/11 11:54:51;;;;;;;1.00;0.50;;;20.50;99.90;;;;;;4881444;29;20045;-86
2022/07/11 11:57:21;;;;;;;0.73;0.50;;;20.50;99.90;;;;;;4866535;29;20192;-87
2022/07/11 11:59:46;;;;;;;1.65;0.50;;;20.50;99.90;;;;;;4866065;29;20084;-87
2022/07/11 12:02:20;;;;;;;1.17;0.63;;;20.50;99.90;;;;;;4851008;29;20055;-87
2022/07/11 12:04:45;;;;;;;1.30;0.80;;;20.60;99.90;;;;;;4867056;29;20048;-87
2022/07/11 12:07:11;;;;;;;1.20;0.60;;;20.60;99.90;;;;;;4866206;29;20049;-87
2022/07/11 12:09:55;;;;;;;3.03;0.50;;;20.60;99.90;;;;;;4880992;29;20041;-86
2022/07/11 12:12:45;;;;;;;1.13;0.60;;;20.70;99.90;;;;;;4865282;29;20051;-86
2022/07/11 12:16:39;;;;;;;6.43;0.70;;;20.70;99.90;;;;;;4867982;29;20116;-85
2022/07/11 12:18:21;;;;;;;0.52;0.50;;;20.80;99.90;;;;;;4881132;29;20049;-85
2022/07/11 12:20:47;;;;;;;1.42;0.47;;;20.90;99.90;;;;;;4864632;29;20044;-86
2022/07/11 12:23:16;;;;;;;1.75;0.50;;;21.00;99.90;;;;;;4851199;29;20137;-85
2022/07/11 12:25:44;;;;;;;3.53;0.60;;;21.00;99.90;;;;;;4865071;29;20060;-85
2022/07/11 12:28:10;;;;;;;0.60;0.38;;;21.10;99.90;;;;;;4864711;29;20037;-85
2022/07/11 12:30:37;;;;;;;12.43;0.63;;;21.10;99.90;;;;;;4865673;29;20041;-86
2022/07/11 12:33:09;;;;;;;4.22;0.70;;;21.10;99.90;;;;;;4866074;29;20127;-85
2022/07/11 12:35:35;;;;;;;1.15;0.40;;;21.20;99.90;;;;;;4880907;29;20140;-85
2022/07/11 12:38:01;;;;;;;2.40;0.60;;;21.20;99.90;;;;;;4882066;29;20044;-85
2022/07/11 12:40:26;;;;;;;1.65;0.55;;;21.30;99.90;;;;;;4882015;29;20052;-85
2022/07/11 12:42:52;;;;;;;0.40;0.40;;;21.30;99.90;;;;;;4881604;29;20100;-86
2022/07/11 12:45:18;;;;;;;0.50;0.50;;;21.30;99.90;;;;;;4835686;29;20068;-85
2022/07/11 12:47:46;;;;;;;0.63;0.50;;;21.30;99.90;;;;;;4865920;29;20143;-85
2022/07/11 12:50:19;;;;;;;0.52;0.50;;;21.30;99.90;;;;;;4865616;29;20057;-85
2022/07/11 12:52:48;;;;;;;0.63;0.50;;;21.20;99.90;;;;;;4881049;29;20515;-85
2022/07/11 12:55:28;;;;;;;2.28;0.52;;;21.20;99.90;;;;;;4866302;29;20045;-86
2022/07/11 12:58:21;;;;;;;1.77;0.50;;;21.20;99.90;;;;;;4850402;29;20055;-86
2022/07/11 13:00:59;;;;;;;1.45;0.30;;;21.10;99.90;;;;;;4863505;29;20056;-86